Terminal Aerodrome Forecast
Issued by NWS Sterling, VA

Current Version | Previous Version | Graphics & Text | Print | Product List | Glossary On
Versions: 1 2 3 4 5 6 7 8 9 10 11 12 13 14 15 16 17 18 19 20 21
000
FTUS41 KLWX 170800 AAA
TAFDCA
TAF AMD
KDCA 170834Z 1709/1806 03006KT P6SM SKC
     FM171500 10009KT P6SM FEW035
     FM171900 10010KT P6SM BKN025
     FM180500 09006KT P6SM BKN025=

USA.gov is the U.S. government's official web portal to all federal, state and local government web resources and services.